Terminal Aerodrome Forecast
Issued by NWS

Home | Current Version | Previous Version | Text Only | Print | Product List | Glossary On
Versions: 1 2 3 4 5 6 7 8 9 10 11 12 13 14 15 16 17 18 19 20
000
FTUS41 KPBZ 312100 AAB
TAFHLG
TAF AMD
KHLG 312104Z 3121/0118 20005KT P6SM -SHRA SCT020 OVC035
      TEMPO 3122/0101 BKN020
     FM010100 03006KT 5SM -RA BR BKN010 OVC020
     FM011300 36010G20KT P6SM VCSH BKN015 BKN025=

USA.gov is the U.S. government's official web portal to all federal, state and local government web resources and services.